createdAt,value
2019-03-09T00:00:58.292Z,68.54
2019-03-09T00:03:30.549Z,68.76
2019-03-09T00:06:02.892Z,69.05
2019-03-09T00:08:35.672Z,70.36
2019-03-09T00:11:07.998Z,70.73
2019-03-09T00:13:41.065Z,72.70
2019-03-09T00:16:14.648Z,70.67
2019-03-09T00:18:47.089Z,70.07
2019-03-09T00:21:22.090Z,73.75
2019-03-09T00:24:10.960Z,72.41
2019-03-09T00:26:48.748Z,75.52
2019-03-09T00:29:34.448Z,73.15
2019-03-09T00:32:09.118Z,71.30
2019-03-09T00:34:43.958Z,75.32
2019-03-09T00:37:16.148Z,73.61
2019-03-09T00:39:47.379Z,72.43
2019-03-09T00:42:19.511Z,76.13
2019-03-09T00:44:51.851Z,73.46
2019-03-09T00:47:24.179Z,72.46
2019-03-09T00:49:56.634Z,72.82
2019-03-09T00:52:28.980Z,72.29
2019-03-09T00:55:02.271Z,72.82
2019-03-09T00:57:34.619Z,71.91
2019-03-09T01:00:09.371Z,72.33
2019-03-09T01:02:41.870Z,71.24
2019-03-09T01:05:14.468Z,71.66
2019-03-09T01:07:46.859Z,71.95
2019-03-09T01:10:19.258Z,72.10
2019-03-09T01:12:51.590Z,72.17
2019-03-09T01:15:24.988Z,73.12
2019-03-09T01:17:57.518Z,73.40
2019-03-09T01:20:30.004Z,73.61
2019-03-09T01:23:02.698Z,72.93
2019-03-09T01:25:35.052Z,73.08
2019-03-09T01:28:07.554Z,74.68
2019-03-09T01:30:40.923Z,74.04
2019-03-09T01:33:13.298Z,75.64
2019-03-09T01:35:45.593Z,74.97
2019-03-09T01:38:18.031Z,74.00
2019-03-09T01:40:51.559Z,74.12
2019-03-09T01:43:24.000Z,76.43
2019-03-09T01:45:56.340Z,75.65
2019-03-09T01:48:28.791Z,75.20
2019-03-09T01:51:01.209Z,75.61
2019-03-09T01:53:36.951Z,75.36
2019-03-09T01:56:07.827Z,75.39
2019-03-09T01:58:40.609Z,75.52
2019-03-09T02:01:13.748Z,76.86
2019-03-09T02:03:47.658Z,75.67
2019-03-09T02:06:20.100Z,76.22
2019-03-09T02:08:52.430Z,77.45
2019-03-09T02:11:24.910Z,76.35
2019-03-09T02:13:57.370Z,77.07
2019-03-09T02:16:29.752Z,76.66
2019-03-09T02:19:02.060Z,77.62
2019-03-09T02:21:34.449Z,77.94
2019-03-09T02:24:06.828Z,77.76
2019-03-09T02:26:40.229Z,77.79
2019-03-09T02:29:12.810Z,77.21
2019-03-09T02:31:44.008Z,77.37
2019-03-09T02:34:16.098Z,80.44
2019-03-09T02:36:48.440Z,79.72
2019-03-09T02:39:43.851Z,76.68
2019-03-09T02:42:16.189Z,77.12
2019-03-09T02:44:48.605Z,78.62
2019-03-09T02:47:20.981Z,77.16
2019-03-09T02:49:53.380Z,75.36
2019-03-09T02:52:25.739Z,75.37
2019-03-09T02:54:58.097Z,75.52
2019-03-09T02:57:30.420Z,76.49
2019-03-09T03:00:02.626Z,76.27
2019-03-09T03:02:44.959Z,75.80
2019-03-09T03:05:17.838Z,76.54
2019-03-09T03:07:50.235Z,77.03
2019-03-09T03:10:22.551Z,77.03
2019-03-09T03:12:54.951Z,76.05
2019-03-09T03:15:34.785Z,74.48
2019-03-09T03:18:07.110Z,75.75
2019-03-09T03:20:38.495Z,75.66
2019-03-09T03:23:10.609Z,79.01
2019-03-09T03:25:42.930Z,75.71
2019-03-09T03:28:16.250Z,75.14
2019-03-09T03:30:48.963Z,75.09
2019-03-09T03:33:21.461Z,75.12
2019-03-09T03:35:53.970Z,77.28
2019-03-09T03:38:26.241Z,78.51
2019-03-09T03:40:57.548Z,76.17
2019-03-09T03:43:29.799Z,79.05
2019-03-09T03:46:02.132Z,76.02
2019-03-09T03:48:36.997Z,76.58
2019-03-09T03:51:09.259Z,75.73
2019-03-09T03:53:40.479Z,76.00
2019-03-09T03:56:12.588Z,78.86
2019-03-09T03:58:45.111Z,77.14
2019-03-09T04:01:17.466Z,75.93
2019-03-09T04:03:49.860Z,76.18
2019-03-09T04:06:22.569Z,77.76
2019-03-09T04:08:55.501Z,76.08
2019-03-09T04:11:27.973Z,76.05
2019-03-09T04:14:00.451Z,76.06
2019-03-09T04:16:33.727Z,75.69
2019-03-09T04:19:06.140Z,76.76
2019-03-09T04:21:38.395Z,76.21
2019-03-09T04:24:10.918Z,75.81
2019-03-09T04:26:43.298Z,75.66
2019-03-09T04:29:15.842Z,75.59
2019-03-09T04:31:48.130Z,75.46
2019-03-09T04:34:20.890Z,75.62
2019-03-09T04:37:01.731Z,75.69
2019-03-09T04:39:34.137Z,76.53
2019-03-09T04:42:06.369Z,76.70
2019-03-09T04:44:37.558Z,76.70
2019-03-09T04:47:09.558Z,79.21
2019-03-09T04:49:40.908Z,77.88
2019-03-09T04:52:13.018Z,79.60
2019-03-09T04:54:45.738Z,77.19
2019-03-09T04:57:16.998Z,77.93
2019-03-09T04:59:49.098Z,79.40
2019-03-09T05:02:21.578Z,76.87
2019-03-09T05:04:54.670Z,76.86
2019-03-09T05:07:41.892Z,76.63
2019-03-09T05:10:52.970Z,76.58
2019-03-09T05:13:29.029Z,76.38
2019-03-09T05:16:02.350Z,76.55
2019-03-09T05:18:34.700Z,76.90
2019-03-09T05:21:07.073Z,77.04
2019-03-09T05:23:39.577Z,76.99
2019-03-09T05:26:11.886Z,77.22
2019-03-09T05:28:43.160Z,77.32
2019-03-09T05:31:15.249Z,79.69
2019-03-09T05:33:46.478Z,77.40
2019-03-09T05:36:18.571Z,79.71
2019-03-09T05:38:51.287Z,77.41
2019-03-09T05:41:23.741Z,77.26
2019-03-09T05:43:56.140Z,77.40
2019-03-09T05:46:28.441Z,77.31
2019-03-09T05:49:00.861Z,77.29
2019-03-09T05:51:33.078Z,77.27
2019-03-09T05:54:04.379Z,77.08
2019-03-09T05:56:36.810Z,79.90
2019-03-09T05:59:09.259Z,77.11
2019-03-09T06:01:41.748Z,77.25
2019-03-09T06:04:14.222Z,77.55
2019-03-09T06:06:46.548Z,76.99
2019-03-09T06:09:18.849Z,76.64
2019-03-09T06:11:51.108Z,76.89
2019-03-09T06:14:23.718Z,76.94
2019-03-09T06:16:56.099Z,76.34
2019-03-09T06:19:28.599Z,75.71
2019-03-09T06:22:00.969Z,75.75
2019-03-09T06:24:33.349Z,75.86
2019-03-09T06:27:05.658Z,75.54
2019-03-09T06:29:38.110Z,75.52
2019-03-09T06:32:45.150Z,75.14
2019-03-09T06:35:17.598Z,74.80
2019-03-09T06:37:55.926Z,74.81
2019-03-09T06:40:28.308Z,73.87
2019-03-09T06:43:00.578Z,73.42
2019-03-09T06:45:31.809Z,73.12
2019-03-09T06:48:04.024Z,75.70
2019-03-09T06:50:37.230Z,71.88
2019-03-09T06:53:09.610Z,72.54
2019-03-09T06:55:41.998Z,71.56
2019-03-09T06:58:14.370Z,71.49
2019-03-09T07:00:48.280Z,70.45
2019-03-09T07:03:20.989Z,70.21
2019-03-09T07:05:53.369Z,69.52
2019-03-09T07:08:26.928Z,69.73
2019-03-09T07:10:59.404Z,68.96
2019-03-09T07:13:31.750Z,69.04
2019-03-09T07:16:04.229Z,70.06
2019-03-09T07:18:38.861Z,67.91
2019-03-09T07:21:11.260Z,67.28
2019-03-09T07:23:43.723Z,66.66
2019-03-09T07:26:16.181Z,66.75
2019-03-09T07:28:48.528Z,66.18
2019-03-09T07:31:21.050Z,66.33
2019-03-09T07:34:21.090Z,66.22
2019-03-09T07:36:53.528Z,66.14
2019-03-09T07:39:25.943Z,65.64
2019-03-09T07:41:58.610Z,65.41
2019-03-09T07:44:31.000Z,65.72
2019-03-09T07:47:03.578Z,64.96
2019-03-09T07:49:36.352Z,64.69
2019-03-09T07:52:32.288Z,64.50
2019-03-09T07:55:05.115Z,63.98
2019-03-09T07:57:37.968Z,63.50
2019-03-09T08:00:15.984Z,62.82
2019-03-09T08:02:48.714Z,62.60
2019-03-09T08:05:21.100Z,62.52
2019-03-09T08:07:53.692Z,61.96
2019-03-09T08:10:26.269Z,61.53
2019-03-09T08:12:58.758Z,61.75
2019-03-09T08:15:31.198Z,61.75
2019-03-09T08:18:04.382Z,61.26
2019-03-09T08:20:37.000Z,59.67
2019-03-09T08:23:09.489Z,60.65
2019-03-09T08:25:42.018Z,60.76
2019-03-09T08:28:16.325Z,58.81
2019-03-09T08:30:48.729Z,59.05
2019-03-09T08:33:21.683Z,58.75
2019-03-09T08:35:54.205Z,58.76
2019-03-09T08:38:26.762Z,59.10
2019-03-09T08:40:59.222Z,58.47
2019-03-09T08:43:31.639Z,57.86
2019-03-09T08:46:04.160Z,56.00
2019-03-09T08:48:36.698Z,54.23
2019-03-09T08:51:09.181Z,55.36
2019-03-09T08:53:41.655Z,53.39
2019-03-09T08:56:14.505Z,54.36
2019-03-09T08:58:46.930Z,54.59
2019-03-09T09:01:19.358Z,56.48
2019-03-09T09:03:51.780Z,57.29
2019-03-09T09:06:24.280Z,55.84
2019-03-09T09:08:56.728Z,54.17
2019-03-09T09:11:29.060Z,57.05
2019-03-09T09:14:01.465Z,56.96
2019-03-09T09:16:33.940Z,56.09
2019-03-09T09:19:06.430Z,56.48
2019-03-09T09:21:39.512Z,56.14
2019-03-09T09:24:11.940Z,53.29
2019-03-09T09:26:45.592Z,50.99
2019-03-09T09:29:18.000Z,49.06
2019-03-09T09:31:50.340Z,46.34
2019-03-09T09:34:22.764Z,46.66
2019-03-09T09:36:56.357Z,43.90
2019-03-09T09:39:29.502Z,44.80
2019-03-09T09:42:02.309Z,44.21
2019-03-09T09:44:34.887Z,43.05
2019-03-09T09:47:07.358Z,41.85
2019-03-09T09:49:39.809Z,41.11
2019-03-09T09:52:12.230Z,40.24
2019-03-09T09:54:44.710Z,38.99
2019-03-09T09:57:17.289Z,39.39
2019-03-09T09:59:49.918Z,39.46
2019-03-09T10:02:21.206Z,36.82
2019-03-09T10:04:53.555Z,35.31
2019-03-09T10:07:26.123Z,40.96
2019-03-09T10:10:04.280Z,45.06
2019-03-09T10:12:39.029Z,39.44
2019-03-09T10:15:14.412Z,43.47
2019-03-09T10:17:47.317Z,41.64
2019-03-09T10:20:21.356Z,47.14
2019-03-09T10:23:03.439Z,46.04
2019-03-09T10:25:29.550Z,46.63
2019-03-09T10:28:01.970Z,46.39
2019-03-09T10:30:35.477Z,43.84
2019-03-09T10:33:08.407Z,37.84
2019-03-09T10:35:42.128Z,37.45
2019-03-09T10:38:14.540Z,35.56
2019-03-09T10:40:47.101Z,32.33
2019-03-09T10:43:19.710Z,34.46
2019-03-09T10:45:52.309Z,34.72
2019-03-09T10:48:24.887Z,36.87
2019-03-09T10:50:58.197Z,33.27
2019-03-09T10:53:31.853Z,34.90
2019-03-09T10:56:04.280Z,36.45
2019-03-09T10:58:36.608Z,36.49
2019-03-09T11:01:08.419Z,37.08
2019-03-09T11:03:40.920Z,36.19
2019-03-09T11:06:13.400Z,38.98
2019-03-09T11:08:45.830Z,42.30
2019-03-09T11:11:18.390Z,38.32
2019-03-09T11:13:52.105Z,39.16
2019-03-09T11:16:24.718Z,39.19
2019-03-09T11:18:57.400Z,40.05
2019-03-09T11:21:29.833Z,41.67
2019-03-09T11:24:02.418Z,39.38
2019-03-09T11:26:35.311Z,37.08
2019-03-09T11:29:09.660Z,38.90
2019-03-09T11:31:42.310Z,37.11
2019-03-09T11:34:14.780Z,36.96
2019-03-09T11:36:47.357Z,39.91
2019-03-09T11:39:19.959Z,38.05
2019-03-09T11:41:52.349Z,41.72
2019-03-09T11:44:24.659Z,37.64
2019-03-09T11:46:56.906Z,38.10
2019-03-09T11:49:29.353Z,38.65
2019-03-09T11:52:01.901Z,40.36
2019-03-09T11:54:34.280Z,40.21
2019-03-09T11:57:06.677Z,41.08
2019-03-09T11:59:38.960Z,42.32
2019-03-09T12:02:10.229Z,42.18
2019-03-09T12:04:47.095Z,40.10
2019-03-09T12:07:18.240Z,41.70
2019-03-09T12:09:50.650Z,38.78
2019-03-09T12:12:23.100Z,40.30
2019-03-09T12:14:55.590Z,39.82
2019-03-09T12:17:28.550Z,39.90
2019-03-09T12:20:00.849Z,40.40
2019-03-09T12:22:33.543Z,37.55
2019-03-09T12:25:06.428Z,38.70
2019-03-09T12:27:39.838Z,39.52
2019-03-09T12:30:13.570Z,38.62
2019-03-09T12:32:46.110Z,37.94
2019-03-09T12:35:18.561Z,38.11
2019-03-09T12:37:51.000Z,41.71
2019-03-09T12:40:23.410Z,46.04
2019-03-09T12:42:56.708Z,47.59
2019-03-09T12:45:28.088Z,53.09
2019-03-09T12:48:00.370Z,56.06
2019-03-09T12:50:32.933Z,57.85
2019-03-09T12:53:05.250Z,58.85
2019-03-09T12:55:37.671Z,59.51
2019-03-09T12:58:10.219Z,59.95
2019-03-09T13:00:43.660Z,61.44
2019-03-09T13:03:16.131Z,62.03
2019-03-09T13:05:48.732Z,59.76
2019-03-09T13:08:23.565Z,60.01
2019-03-09T13:10:56.294Z,61.77
2019-03-09T13:13:28.739Z,60.94
2019-03-09T13:16:05.820Z,60.85
2019-03-09T13:18:39.980Z,60.43
2019-03-09T13:21:13.360Z,61.26
2019-03-09T13:23:45.860Z,63.37
2019-03-09T13:26:20.119Z,65.18
2019-03-09T13:28:52.880Z,65.07
2019-03-09T13:31:25.380Z,70.31
2019-03-09T13:33:57.954Z,70.94
2019-03-09T13:36:30.590Z,72.21
2019-03-09T13:39:03.200Z,73.27
2019-03-09T13:41:36.499Z,74.56
2019-03-09T13:44:09.427Z,76.20
2019-03-09T13:46:42.162Z,75.44
2019-03-09T13:49:15.666Z,72.48
2019-03-09T13:51:48.100Z,74.25
2019-03-09T13:54:20.742Z,75.80
2019-03-09T13:56:53.340Z,71.28
2019-03-09T13:59:27.409Z,71.20
2019-03-09T14:02:01.361Z,76.51
2019-03-09T14:04:33.900Z,73.73
2019-03-09T14:07:06.330Z,75.01
2019-03-09T14:09:38.810Z,74.75
2019-03-09T14:12:11.243Z,76.01
2019-03-09T14:14:43.714Z,76.29
2019-03-09T14:17:16.130Z,73.94
2019-03-09T14:19:49.249Z,74.80
2019-03-09T14:22:24.810Z,76.08
2019-03-09T14:24:57.270Z,74.76
2019-03-09T14:27:29.609Z,75.55
2019-03-09T14:30:02.750Z,74.34
2019-03-09T14:32:35.900Z,74.29
2019-03-09T14:35:08.650Z,71.27
2019-03-09T14:37:41.136Z,73.26
2019-03-09T14:40:13.807Z,70.91
2019-03-09T14:42:47.426Z,67.48
2019-03-09T14:45:19.860Z,70.20
2019-03-09T14:47:52.430Z,71.67
2019-03-09T14:50:24.882Z,69.53
2019-03-09T14:52:57.645Z,70.47
2019-03-09T14:55:31.570Z,68.69
2019-03-09T14:58:04.180Z,68.72
2019-03-09T15:00:37.800Z,68.42
2019-03-09T15:03:10.371Z,69.46
2019-03-09T15:05:45.609Z,69.91
2019-03-09T15:08:19.078Z,67.37
2019-03-09T15:10:51.620Z,68.35
2019-03-09T15:13:24.169Z,67.83
2019-03-09T15:15:56.647Z,67.64
2019-03-09T15:18:29.940Z,68.27
2019-03-09T15:21:01.178Z,68.02
2019-03-09T15:23:33.828Z,68.73
2019-03-09T15:26:06.268Z,66.89
2019-03-09T15:28:38.800Z,66.29
2019-03-09T15:31:11.227Z,67.20
2019-03-09T15:33:46.248Z,67.68
2019-03-09T15:36:18.778Z,66.81
2019-03-09T15:38:51.308Z,67.47
2019-03-09T15:41:23.822Z,65.20
2019-03-09T15:43:56.229Z,66.54
2019-03-09T15:46:28.727Z,66.18
2019-03-09T15:49:01.180Z,66.88
2019-03-09T15:51:33.873Z,66.05
2019-03-09T15:54:07.222Z,65.60
2019-03-09T15:56:39.718Z,66.30
2019-03-09T15:59:12.258Z,66.38
2019-03-09T16:01:44.728Z,64.86
2019-03-09T16:04:17.118Z,66.26
2019-03-09T16:06:50.711Z,65.70
2019-03-09T16:09:23.116Z,64.97
2019-03-09T16:11:56.060Z,66.89
2019-03-09T16:14:28.388Z,65.11
2019-03-09T16:17:00.128Z,65.77
2019-03-09T16:19:37.888Z,67.13
2019-03-09T16:22:15.820Z,66.38
2019-03-09T16:24:48.345Z,66.01
2019-03-09T16:27:21.360Z,66.43
2019-03-09T16:29:53.728Z,65.59
2019-03-09T16:32:26.289Z,64.42
2019-03-09T16:34:58.807Z,64.93
2019-03-09T16:37:31.361Z,64.75
2019-03-09T16:40:03.882Z,65.14
2019-03-09T16:42:36.847Z,64.45
2019-03-09T16:45:10.020Z,65.39
2019-03-09T16:47:42.480Z,65.28
2019-03-09T16:50:17.950Z,65.99
2019-03-09T16:52:58.218Z,65.41
2019-03-09T16:55:39.848Z,64.89
2019-03-09T16:58:28.180Z,65.79
2019-03-09T17:01:06.389Z,65.92
2019-03-09T17:03:45.149Z,64.71
2019-03-09T17:06:22.861Z,66.17
2019-03-09T17:13:01.094Z,65.09
2019-03-09T17:15:34.000Z,65.82
2019-03-09T17:18:06.570Z,64.81
2019-03-09T17:20:39.139Z,66.16
2019-03-09T17:23:11.718Z,65.55
2019-03-09T17:25:44.272Z,65.47
2019-03-09T17:28:16.958Z,65.75
2019-03-09T17:30:49.770Z,66.21
2019-03-09T17:33:22.340Z,65.71
2019-03-09T17:35:54.850Z,65.27
2019-03-09T17:38:29.319Z,65.63
2019-03-09T17:41:01.841Z,65.73
2019-03-09T17:43:34.340Z,65.43
2019-03-09T17:46:06.788Z,65.30
2019-03-09T17:48:40.749Z,65.13
2019-03-09T17:51:13.801Z,64.69
2019-03-09T17:53:46.178Z,64.56
2019-03-09T17:56:18.608Z,64.78
2019-03-09T17:58:51.068Z,63.97
2019-03-09T18:01:23.582Z,63.93
2019-03-09T18:03:56.110Z,64.26
2019-03-09T18:07:18.082Z,64.50
2019-03-09T18:10:02.979Z,64.75
2019-03-09T18:12:40.515Z,65.26
2019-03-09T18:15:20.500Z,65.71
2019-03-09T18:18:00.771Z,65.81
2019-03-09T18:20:34.799Z,65.82
2019-03-09T18:23:11.428Z,65.82
2019-03-09T18:25:44.595Z,65.55
2019-03-09T18:28:23.490Z,65.86
2019-03-09T18:31:09.262Z,65.78
2019-03-09T18:33:48.590Z,66.20
2019-03-09T18:36:22.618Z,65.85
2019-03-09T18:38:54.980Z,65.74
2019-03-09T18:41:27.358Z,65.70
2019-03-09T18:44:01.040Z,65.54
2019-03-09T18:46:34.249Z,65.13
2019-03-09T18:49:06.749Z,64.93
2019-03-09T18:51:49.142Z,64.88
2019-03-09T18:54:20.418Z,64.92
2019-03-09T18:56:52.860Z,66.24
2019-03-09T18:59:25.316Z,65.04
2019-03-09T19:01:57.610Z,65.76
2019-03-09T19:04:28.938Z,66.64
2019-03-09T19:07:01.083Z,68.49
2019-03-09T19:09:33.772Z,67.05
2019-03-09T19:12:06.298Z,65.99
2019-03-09T19:14:38.670Z,65.51
2019-03-09T19:17:11.288Z,65.85
2019-03-09T19:19:43.791Z,66.45
2019-03-09T19:22:16.480Z,67.05
2019-03-09T19:24:55.332Z,67.26
2019-03-09T19:27:28.450Z,67.78
2019-03-09T19:30:01.174Z,67.79
2019-03-09T19:32:35.098Z,68.92
2019-03-09T19:35:09.850Z,67.63
2019-03-09T19:37:42.380Z,67.27
2019-03-09T19:40:15.668Z,67.81
2019-03-09T19:42:48.298Z,68.39
2019-03-09T19:45:23.417Z,68.20
2019-03-09T19:47:55.819Z,68.53
2019-03-09T19:50:28.370Z,70.38
2019-03-09T19:53:00.841Z,69.19
2019-03-09T19:55:34.434Z,70.67
2019-03-09T19:58:06.962Z,72.89
2019-03-09T20:00:39.500Z,72.32
2019-03-09T20:03:12.412Z,71.56
2019-03-09T20:05:45.200Z,70.91
2019-03-09T20:08:17.777Z,70.43
2019-03-09T20:10:50.211Z,71.07
2019-03-09T20:13:24.258Z,70.59
2019-03-09T20:15:58.409Z,70.35
2019-03-09T20:18:30.921Z,70.65
2019-03-09T20:21:03.349Z,71.65
2019-03-09T20:23:35.788Z,72.90
2019-03-09T20:26:08.213Z,70.58
2019-03-09T20:28:41.661Z,70.47
2019-03-09T20:31:14.258Z,70.01
2019-03-09T20:33:47.328Z,70.62
2019-03-09T20:36:19.789Z,70.81
2019-03-09T20:38:53.129Z,71.07
2019-03-09T20:41:26.509Z,71.12
2019-03-09T20:43:57.848Z,71.22
2019-03-09T20:46:29.968Z,75.18
2019-03-09T20:49:02.348Z,72.07
2019-03-09T20:51:34.421Z,72.40
2019-03-09T20:54:06.745Z,75.89
2019-03-09T20:56:39.234Z,72.39
2019-03-09T20:59:13.090Z,74.61
2019-03-09T21:01:45.468Z,73.28
2019-03-09T21:04:17.242Z,72.41
2019-03-09T21:06:49.719Z,75.70
2019-03-09T21:09:22.118Z,72.25
2019-03-09T21:11:54.451Z,72.31
2019-03-09T21:14:26.850Z,73.58
2019-03-09T21:16:59.832Z,72.90
2019-03-09T21:19:33.751Z,73.05
2019-03-09T21:22:07.292Z,74.46
2019-03-09T21:24:40.021Z,73.68
2019-03-09T21:27:12.539Z,75.36
2019-03-09T21:29:45.000Z,73.02
2019-03-09T21:32:17.337Z,73.30
2019-03-09T21:34:49.777Z,74.81
2019-03-09T21:37:22.180Z,75.33
2019-03-09T21:39:54.628Z,75.83
2019-03-09T21:42:27.410Z,75.41
2019-03-09T21:44:59.841Z,75.70
2019-03-09T21:47:33.410Z,75.01
2019-03-09T21:50:06.610Z,74.14
2019-03-09T21:52:42.421Z,75.11
2019-03-09T21:55:16.530Z,75.83
2019-03-09T21:57:49.240Z,76.97
2019-03-09T22:00:21.748Z,74.70
2019-03-09T22:02:54.228Z,73.90
2019-03-09T22:05:26.568Z,74.46
2019-03-09T22:07:58.927Z,73.88
2019-03-09T22:10:31.440Z,73.28
2019-03-09T22:13:03.778Z,74.17
2019-03-09T22:15:36.179Z,73.76
2019-03-09T22:18:08.467Z,73.96
2019-03-09T22:20:39.769Z,73.72
2019-03-09T22:23:11.884Z,75.63
2019-03-09T22:25:44.431Z,73.18
2019-03-09T22:28:17.681Z,73.28
2019-03-09T22:30:50.080Z,73.10
2019-03-09T22:33:22.418Z,73.28
2019-03-09T22:35:54.850Z,73.37
2019-03-09T22:38:27.261Z,72.88
2019-03-09T22:40:59.608Z,72.75
2019-03-09T22:43:31.950Z,72.28
2019-03-09T22:46:05.129Z,71.45
2019-03-09T22:48:37.552Z,71.12
2019-03-09T22:51:09.980Z,70.98
2019-03-09T22:53:42.350Z,71.47
2019-03-09T22:56:15.140Z,71.97
2019-03-09T22:58:47.455Z,71.61
2019-03-09T23:01:18.834Z,71.55
2019-03-09T23:03:51.009Z,73.54
2019-03-09T23:06:24.458Z,71.83
2019-03-09T23:08:56.838Z,73.07
2019-03-09T23:11:29.258Z,71.63
2019-03-09T23:14:01.669Z,71.54
2019-03-09T23:16:35.690Z,71.79
2019-03-09T23:19:07.928Z,71.26
2019-03-09T23:21:41.109Z,72.38
2019-03-09T23:24:13.380Z,73.24
2019-03-09T23:26:45.650Z,72.23
2019-03-09T23:29:16.861Z,71.26
2019-03-09T23:31:49.817Z,73.73
2019-03-09T23:34:22.170Z,71.12
2019-03-09T23:37:04.958Z,71.39
2019-03-09T23:39:37.370Z,72.73
2019-03-09T23:42:10.953Z,71.41
2019-03-09T23:44:44.481Z,72.58
2019-03-09T23:47:16.980Z,71.51
2019-03-09T23:49:50.548Z,74.39
2019-03-09T23:52:23.000Z,74.87
2019-03-09T23:54:55.390Z,77.05
2019-03-09T23:57:27.808Z,77.90
